Time;durP1;ratioP1;P1;durP2;ratioP2;P2;SDS_P1;SDS_P2;PMS_P1;PMS_P2;Temp;Humidity;BMP_temperature;BMP_pressure;BME280_temperature;BME280_humidity;BME280_pressure;Samples;Min_cycle;Max_cycle;Signal;HPM_P1;HPM_P2
2023/09/12 00:00:18;;;;;;;27.63;22.67;;;;;;;22.50;72.52;101192.91;5069923;28;20036;-68
2023/09/12 00:02:43;;;;;;;24.98;20.58;;;;;;;22.52;72.49;101190.59;5069648;28;20059;-68
2023/09/12 00:05:09;;;;;;;24.67;21.80;;;;;;;22.51;73.02;101193.75;5077487;28;20027;-67
2023/09/12 00:07:35;;;;;;;24.35;21.40;;;;;;;22.54;72.92;101199.56;5072054;28;20115;-68
2023/09/12 00:10:01;;;;;;;23.27;20.73;;;;;;;22.54;72.41;101195.91;5075923;28;20024;-69
2023/09/12 00:12:27;;;;;;;24.52;21.80;;;;;;;22.51;72.65;101196.56;5076590;28;20497;-68
2023/09/12 00:14:53;;;;;;;22.88;20.48;;;;;;;22.47;72.96;101196.38;5080255;28;20377;-68
2023/09/12 00:17:18;;;;;;;22.95;20.52;;;;;;;22.46;72.65;101194.72;5077722;28;20016;-68
2023/09/12 00:19:44;;;;;;;26.33;21.40;;;;;;;22.40;72.61;101203.66;5072288;28;20041;-68
2023/09/12 00:22:09;;;;;;;23.83;21.23;;;;;;;22.39;72.82;101202.81;5075021;28;20029;-68
2023/09/12 00:24:35;;;;;;;23.85;21.15;;;;;;;22.42;72.90;101207.00;5079717;28;20029;-68
2023/09/12 00:27:00;;;;;;;25.92;20.83;;;;;;;22.36;72.82;101200.69;5081457;28;20472;-68
2023/09/12 00:29:25;;;;;;;25.33;20.52;;;;;;;22.32;72.42;101195.97;5080550;28;20040;-68
2023/09/12 00:31:51;;;;;;;24.25;21.50;;;;;;;22.30;72.51;101199.97;5080484;28;20048;-68
2023/09/12 00:34:17;;;;;;;23.85;20.33;;;;;;;22.29;72.60;101203.94;5080438;28;20107;-69
2023/09/12 00:36:43;;;;;;;24.58;20.95;;;;;;;22.27;72.75;101200.59;5074445;28;20024;-68
2023/09/12 00:39:08;;;;;;;23.45;20.75;;;;;;;22.24;73.04;101200.41;5078968;28;20032;-68
2023/09/12 00:41:34;;;;;;;24.98;21.25;;;;;;;22.22;72.64;101200.75;5081060;28;20432;-68
2023/09/12 00:43:59;;;;;;;27.95;21.05;;;;;;;22.18;72.52;101202.56;5076020;28;20432;-68
2023/09/12 00:46:26;;;;;;;25.95;21.33;;;;;;;22.15;73.18;101200.38;5081601;28;20029;-68
2023/09/12 00:48:53;;;;;;;27.23;21.35;;;;;;;22.13;73.21;101202.69;5080991;28;20040;-68
2023/09/12 00:51:20;;;;;;;29.70;21.25;;;;;;;22.17;73.36;101200.88;5077973;28;20028;-68
2023/09/12 00:53:47;;;;;;;27.65;20.25;;;;;;;22.14;73.08;101195.88;5078718;28;20037;-68
2023/09/12 00:56:13;;;;;;;22.05;19.48;;;;;;;22.10;73.10;101188.34;5074244;28;20074;-68
2023/09/12 00:58:38;;;;;;;24.33;20.25;;;;;;;22.06;72.86;101193.78;5079606;28;20609;-68
2023/09/12 01:01:04;;;;;;;23.55;20.70;;;;;;;22.01;72.85;101188.28;5080331;28;20024;-68
2023/09/12 01:03:30;;;;;;;24.35;20.33;;;;;;;22.01;72.84;101189.13;5076117;28;20036;-68
2023/09/12 01:05:59;;;;;;;24.95;21.58;;;;;;;21.99;73.03;101194.25;5079092;28;20060;-68
2023/09/12 01:08:24;;;;;;;24.23;20.90;;;;;;;21.98;72.72;101191.75;5079625;28;20476;-68
2023/09/12 01:10:53;;;;;;;25.60;20.48;;;;;;;21.96;72.99;101182.75;5071847;28;20032;-67
2023/09/12 01:13:19;;;;;;;27.73;20.38;;;;;;;21.90;73.46;101175.56;5070917;28;20429;-69
2023/09/12 01:15:45;;;;;;;26.85;20.60;;;;;;;21.91;72.97;101180.88;5064652;28;20029;-68
2023/09/12 01:18:11;;;;;;;23.40;19.73;;;;;;;21.92;72.72;101182.56;5059657;28;20340;-68
2023/09/12 01:20:39;;;;;;;22.20;19.70;;;;;;;21.90;73.02;101184.88;5062787;28;20059;-68
2023/09/12 01:23:34;;;;;;;25.77;20.30;;;;;;;21.88;73.22;101180.69;5059606;28;20035;-67
2023/09/12 01:26:02;;;;;;;24.95;20.33;;;;;;;21.87;72.80;101179.03;5063422;28;20480;-67
2023/09/12 01:28:34;;;;;;;24.40;20.83;;;;;;;21.83;72.94;101183.66;5055707;28;20033;-66
2023/09/12 01:31:00;;;;;;;26.63;19.90;;;;;;;21.81;72.92;101170.69;5058960;28;20041;-68
2023/09/12 01:33:26;;;;;;;24.67;20.88;;;;;;;21.79;72.56;101177.81;5056007;28;20025;-67
2023/09/12 01:35:51;;;;;;;27.98;22.40;;;;;;;21.71;72.89;101173.75;5059312;28;20047;-68
2023/09/12 01:38:16;;;;;;;24.98;20.60;;;;;;;21.72;72.94;101175.44;5059207;28;20041;-68
2023/09/12 01:40:48;;;;;;;26.42;20.88;;;;;;;21.68;73.11;101165.91;5060081;28;20456;-69
2023/09/12 01:43:17;;;;;;;25.48;20.70;;;;;;;21.66;72.80;101176.72;5066908;28;20028;-67
2023/09/12 01:45:44;;;;;;;23.85;19.92;;;;;;;21.63;72.78;101174.53;5071383;28;20393;-68
2023/09/12 01:48:11;;;;;;;29.00;20.75;;;;;;;21.63;72.78;101176.53;5090016;28;20107;-68
2023/09/12 01:50:38;;;;;;;24.80;21.67;;;;;;;21.62;72.88;101172.03;5092785;28;20028;-69
2023/09/12 01:53:03;;;;;;;22.70;20.27;;;;;;;21.63;72.50;101174.53;5091190;28;20035;-69
2023/09/12 01:55:29;;;;;;;25.55;20.90;;;;;;;21.59;72.32;101173.50;5090388;28;20040;-69
2023/09/12 01:57:56;;;;;;;22.05;19.73;;;;;;;21.56;72.12;101179.78;5060171;28;20481;-68
2023/09/12 02:00:22;;;;;;;23.73;21.27;;;;;;;21.58;72.63;101179.47;5049799;28;20107;-68
2023/09/12 02:02:48;;;;;;;23.08;19.92;;;;;;;21.54;72.68;101188.59;5066198;28;20116;-68
2023/09/12 02:05:22;;;;;;;23.10;19.60;;;;;;;21.49;72.72;101173.75;5069014;28;20024;-68
2023/09/12 02:07:47;;;;;;;24.90;20.08;;;;;;;21.46;72.78;101174.41;5090157;28;20028;-68
2023/09/12 02:10:13;;;;;;;26.30;21.40;;;;;;;21.48;72.69;101166.44;5091743;28;20031;-68
2023/09/12 02:12:39;;;;;;;23.08;20.75;;;;;;;21.47;72.99;101171.25;5092654;28;20030;-68
2023/09/12 02:15:05;;;;;;;23.85;21.25;;;;;;;21.46;72.83;101174.41;5058685;28;20388;-69
2023/09/12 02:17:30;;;;;;;24.55;21.08;;;;;;;21.42;72.85;101167.69;5051548;28;20043;-68
2023/09/12 02:19:56;;;;;;;25.35;20.92;;;;;;;21.46;72.92;101168.75;5059920;28;20045;-68
2023/09/12 02:22:21;;;;;;;22.15;20.05;;;;;;;21.41;73.31;101171.66;5079539;28;20044;-68
2023/09/12 02:24:47;;;;;;;22.90;20.50;;;;;;;21.45;73.12;101169.88;5065537;28;20035;-68
2023/09/12 02:27:12;;;;;;;23.13;20.13;;;;;;;21.43;73.07;101175.84;5072141;28;20734;-68
2023/09/12 02:29:42;;;;;;;25.25;18.63;;;;;;;21.35;73.22;101175.78;5072331;28;20707;-67
2023/09/12 02:32:07;;;;;;;18.48;16.55;;;;;;;21.41;73.13;101177.31;5054892;28;20385;-67
2023/09/12 02:34:33;;;;;;;16.23;14.43;;;;;;;21.35;73.34;101184.25;5083227;28;20032;-68
2023/09/12 02:36:58;;;;;;;17.92;14.98;;;;;;;21.28;73.36;101174.19;5091293;28;20028;-68
2023/09/12 02:39:23;;;;;;;15.43;13.82;;;;;;;21.30;73.13;101173.88;5092207;28;20039;-68
2023/09/12 02:41:49;;;;;;;15.00;13.45;;;;;;;21.34;72.96;101172.13;5058388;28;20025;-68
2023/09/12 02:44:14;;;;;;;14.82;13.48;;;;;;;21.28;73.19;101171.38;5091185;28;20137;-68
2023/09/12 02:46:39;;;;;;;16.55;14.27;;;;;;;21.32;73.02;101177.22;5091839;28;20027;-68
2023/09/12 02:49:05;;;;;;;15.35;13.57;;;;;;;21.24;72.87;101172.31;5058143;28;20040;-67
2023/09/12 02:51:31;;;;;;;15.32;13.43;;;;;;;21.25;72.41;101174.81;5051073;28;20029;-68
2023/09/12 02:53:56;;;;;;;16.48;14.57;;;;;;;21.17;73.04;101177.56;5051542;28;20396;-69
2023/09/12 02:56:22;;;;;;;15.80;14.15;;;;;;;21.16;72.79;101165.44;5053694;28;20028;-69
2023/09/12 02:58:48;;;;;;;16.27;14.25;;;;;;;21.13;72.97;101168.88;5086646;28;20111;-68
2023/09/12 03:01:17;;;;;;;15.95;14.23;;;;;;;21.07;73.14;101167.34;5091503;28;20020;-68
2023/09/12 03:03:44;;;;;;;16.60;14.65;;;;;;;21.11;72.78;101174.03;5091784;28;20104;-68
2023/09/12 03:06:09;;;;;;;17.25;14.75;;;;;;;21.02;72.78;101182.38;5055552;28;20029;-68
2023/09/12 03:08:34;;;;;;;17.45;15.65;;;;;;;21.05;72.78;101170.47;5051394;28;20031;-68
2023/09/12 03:11:02;;;;;;;18.38;15.80;;;;;;;21.03;72.75;101177.59;5088845;28;20024;-68
2023/09/12 03:13:28;;;;;;;18.48;16.58;;;;;;;21.01;72.73;101179.88;5067518;28;20021;-69
2023/09/12 03:15:53;;;;;;;17.85;15.95;;;;;;;21.04;72.38;101179.25;5051023;28;20033;-68
2023/09/12 03:18:18;;;;;;;18.52;16.63;;;;;;;21.01;72.95;101174.25;5051279;28;20031;-68
2023/09/12 03:20:44;;;;;;;18.05;16.10;;;;;;;21.00;72.64;101164.13;5050294;28;20432;-68
2023/09/12 03:23:09;;;;;;;18.65;16.65;;;;;;;20.97;72.66;101159.09;5051722;28;20487;-69
2023/09/12 03:25:38;;;;;;;18.90;16.90;;;;;;;20.96;72.74;101160.25;5086335;28;20122;-69
2023/09/12 03:28:05;;;;;;;19.33;16.90;;;;;;;20.95;72.85;101150.97;5091397;28;20111;-69
2023/09/12 03:30:33;;;;;;;21.33;17.33;;;;;;;20.95;72.85;101152.94;5077821;28;20039;-69
2023/09/12 03:32:58;;;;;;;19.20;17.23;;;;;;;20.89;73.00;101166.31;5070629;28;20669;-69
2023/09/12 03:35:23;;;;;;;18.98;16.58;;;;;;;20.91;72.70;101157.56;5071707;28;20029;-68
2023/09/12 03:37:49;;;;;;;19.10;17.05;;;;;;;20.93;72.67;101150.44;5071420;28;20052;-69
2023/09/12 03:40:14;;;;;;;18.05;16.13;;;;;;;20.89;72.65;101155.03;5084507;28;20040;-68
2023/09/12 03:42:39;;;;;;;19.40;15.68;;;;;;;20.90;72.67;101161.50;5091373;28;20119;-69
2023/09/12 03:45:05;;;;;;;17.80;15.90;;;;;;;20.87;72.84;101164.94;5091133;28;20032;-69
2023/09/12 03:47:31;;;;;;;17.25;15.60;;;;;;;20.87;72.84;101164.94;5087272;28;20436;-69
2023/09/12 03:49:56;;;;;;;18.98;16.90;;;;;;;20.84;73.02;101158.81;5057716;28;20033;-69
2023/09/12 03:52:21;;;;;;;18.05;16.38;;;;;;;20.82;73.24;101166.72;5050682;28;20028;-69
2023/09/12 03:54:46;;;;;;;17.90;15.90;;;;;;;20.79;73.36;101175.84;5050251;28;20039;-69
2023/09/12 03:57:12;;;;;;;18.02;16.13;;;;;;;20.73;73.69;101164.97;5053056;28;20039;-68
2023/09/12 03:59:37;;;;;;;19.65;17.40;;;;;;;20.78;73.63;101160.06;5054883;28;20029;-68
2023/09/12 04:02:03;;;;;;;18.58;16.65;;;;;;;20.80;73.68;101154.09;5054884;28;20087;-69
2023/09/12 04:04:29;;;;;;;17.67;15.88;;;;;;;20.80;73.70;101157.75;5081644;28;20471;-69
2023/09/12 04:06:54;;;;;;;19.40;17.10;;;;;;;20.75;73.89;101160.69;5072956;28;20535;-69
2023/09/12 04:09:20;;;;;;;20.23;16.75;;;;;;;20.83;73.72;101162.78;5074748;28;20115;-68
2023/09/12 04:11:45;;;;;;;20.75;16.85;;;;;;;20.81;73.79;101159.44;5075270;28;20039;-68
2023/09/12 04:14:11;;;;;;;19.25;16.35;;;;;;;20.80;73.83;101149.31;5074234;28;20098;-68
2023/09/12 04:16:36;;;;;;;18.90;15.40;;;;;;;20.77;74.13;101149.91;5074696;28;20434;-68
2023/09/12 04:19:03;;;;;;;21.77;16.60;;;;;;;20.81;74.15;101152.94;5094944;28;20034;-68
2023/09/12 04:21:28;;;;;;;22.38;15.70;;;;;;;20.75;74.25;101155.06;5095425;28;20024;-69
2023/09/12 04:23:53;;;;;;;17.27;15.40;;;;;;;20.70;74.27;101152.31;5070578;28;20044;-69
2023/09/12 04:26:19;;;;;;;16.65;14.75;;;;;;;20.71;74.47;101148.38;5074597;28;20067;-69
2023/09/12 04:28:46;;;;;;;16.92;14.93;;;;;;;20.64;74.72;101152.75;5070537;28;20029;-68
2023/09/12 04:31:11;;;;;;;15.52;13.90;;;;;;;20.66;74.50;101150.44;5072158;28;20120;-69
2023/09/12 04:33:37;;;;;;;14.50;13.10;;;;;;;20.61;74.54;101154.22;5094956;28;20027;-69
2023/09/12 04:36:02;;;;;;;19.42;14.02;;;;;;;20.63;74.30;101153.91;5093891;28;20035;-69
2023/09/12 04:38:28;;;;;;;15.95;14.30;;;;;;;20.66;74.38;101159.75;5094535;28;20038;-69
2023/09/12 04:41:02;;;;;;;15.25;13.50;;;;;;;20.65;74.36;101157.25;5061699;28;20551;-70
2023/09/12 04:43:27;;;;;;;15.10;13.20;;;;;;;20.64;74.43;101164.88;5053357;28;20033;-69
2023/09/12 04:45:53;;;;;;;16.40;13.60;;;;;;;20.62;74.54;101161.53;5066891;28;20360;-70
2023/09/12 04:48:18;;;;;;;15.85;13.73;;;;;;;20.66;74.24;101162.56;5075748;28;20464;-70
2023/09/12 04:50:43;;;;;;;15.90;14.20;;;;;;;20.55;74.69;101155.47;5090831;28;20020;-69
2023/09/12 04:53:09;;;;;;;17.27;15.48;;;;;;;20.58;74.53;101166.13;5093154;28;20107;-69
2023/09/12 04:55:37;;;;;;;16.95;14.85;;;;;;;20.58;74.59;101163.28;5094273;28;20059;-70
2023/09/12 04:58:04;;;;;;;18.88;15.02;;;;;;;20.59;74.45;101170.59;5082744;28;20115;-69
2023/09/12 05:00:30;;;;;;;16.80;15.10;;;;;;;20.56;74.53;101174.06;5094277;28;20032;-69
2023/09/12 05:02:55;;;;;;;17.92;15.57;;;;;;;20.57;74.43;101164.47;5069769;28;20062;-69
2023/09/12 05:05:20;;;;;;;17.08;15.38;;;;;;;20.59;74.29;101173.41;5071437;28;20025;-69
2023/09/12 05:07:46;;;;;;;21.25;15.90;;;;;;;20.57;74.46;101167.28;5073028;28;20016;-70
2023/09/12 05:10:11;;;;;;;20.60;16.55;;;;;;;20.54;74.55;101165.91;5070732;28;20357;-69
2023/09/12 05:12:36;;;;;;;21.45;16.63;;;;;;;20.57;74.43;101167.28;5084435;28;20103;-69
2023/09/12 05:15:02;;;;;;;19.92;15.80;;;;;;;20.52;74.61;101178.66;5093679;28;20380;-70
2023/09/12 05:17:28;;;;;;;19.67;16.10;;;;;;;20.53;74.49;101181.16;5071836;28;20110;-70
2023/09/12 05:19:53;;;;;;;22.15;17.95;;;;;;;20.50;74.81;101178.13;5056578;28;20043;-69
2023/09/12 05:22:19;;;;;;;24.42;18.50;;;;;;;20.54;74.84;101170.72;5055925;28;20040;-68
2023/09/12 05:24:45;;;;;;;19.08;17.02;;;;;;;20.50;75.14;101164.03;5066891;28;20024;-68
2023/09/12 05:27:11;;;;;;;16.13;13.32;;;;;;;20.57;75.92;101167.28;5062544;28;20051;-69
2023/09/12 05:29:36;;;;;;;22.10;18.27;;;;;;;20.55;74.78;101155.47;5067495;28;20072;-69
2023/09/12 05:32:02;;;;;;;22.77;18.15;;;;;;;20.53;75.45;101152.13;5073256;28;20153;-69
2023/09/12 05:34:27;;;;;;;21.63;18.23;;;;;;;20.53;75.37;101146.50;5072334;28;20677;-69
2023/09/12 05:36:52;;;;;;;19.90;17.15;;;;;;;20.53;75.24;101138.88;5068533;28;20032;-69
2023/09/12 05:39:18;;;;;;;21.73;17.73;;;;;;;20.57;75.30;101130.63;5081809;28;20501;-69
2023/09/12 05:41:44;;;;;;;23.85;18.38;;;;;;;20.54;75.72;101139.69;5079191;28;20028;-69
2023/09/12 05:44:12;;;;;;;23.85;19.20;;;;;;;20.49;75.72;101142.63;5061963;28;20024;-70
2023/09/12 05:46:37;;;;;;;21.05;17.45;;;;;;;20.47;75.71;101148.53;5088909;28;20035;-70
2023/09/12 05:49:03;;;;;;;23.83;18.65;;;;;;;20.52;75.66;101154.13;5072835;28;20037;-71
2023/09/12 05:51:29;;;;;;;24.30;19.77;;;;;;;20.51;75.45;101151.59;5072516;28;20035;-67
2023/09/12 05:53:54;;;;;;;23.10;19.45;;;;;;;20.50;75.66;101158.38;5071009;28;20082;-70
2023/09/12 05:56:20;;;;;;;23.52;18.63;;;;;;;20.57;75.72;101158.81;5064103;28;20063;-68
2023/09/12 05:58:46;;;;;;;22.50;19.00;;;;;;;20.50;75.84;101153.59;5068440;28;20036;-65
2023/09/12 06:01:11;;;;;;;22.50;19.48;;;;;;;20.50;76.25;101159.22;5049825;28;20037;-68
2023/09/12 06:03:36;;;;;;;12.65;10.25;;;;;;;20.72;79.91;101166.97;5079277;28;20028;-67
2023/09/12 06:06:02;;;;;;;21.10;17.52;;;;;;;20.70;76.20;101168.41;5067467;28;20069;-68
2023/09/12 06:08:27;;;;;;;20.25;13.85;;;;;;;20.81;76.98;101165.06;5071043;28;20433;-69
2023/09/12 06:10:54;;;;;;;23.83;19.65;;;;;;;20.71;76.06;101173.75;5091987;28;20028;-68
2023/09/12 06:13:19;;;;;;;22.92;19.02;;;;;;;20.72;75.60;101178.25;5053580;28;20029;-68
2023/09/12 06:15:45;;;;;;;23.02;19.20;;;;;;;20.71;75.90;101173.75;5059238;28;20039;-69
2023/09/12 06:18:10;;;;;;;21.27;18.67;;;;;;;20.68;75.61;101174.38;5069470;28;20073;-70
2023/09/12 06:20:36;;;;;;;22.88;18.92;;;;;;;20.67;75.80;101169.91;5068452;28;20097;-69
2023/09/12 06:23:03;;;;;;;23.98;18.98;;;;;;;20.65;75.90;101175.00;5069924;28;20123;-70
2023/09/12 06:25:29;;;;;;;16.25;14.52;;;;;;;20.81;76.51;101178.34;5084107;28;20471;-66
2023/09/12 06:27:54;;;;;;;21.88;18.92;;;;;;;20.75;75.65;101176.75;5089287;28;20044;-66
2023/09/12 06:30:20;;;;;;;17.00;15.27;;;;;;;20.84;76.27;101170.09;5050344;28;20396;-67
2023/09/12 06:32:45;;;;;;;20.83;15.10;;;;;;;20.90;75.71;101169.97;5047007;28;20037;-67
2023/09/12 06:35:11;;;;;;;19.90;15.27;;;;;;;20.95;75.50;101186.81;5062066;28;20013;-68
2023/09/12 06:37:39;;;;;;;22.27;16.38;;;;;;;20.98;75.75;101184.16;5069606;28;20060;-68
2023/09/12 06:40:05;;;;;;;19.48;15.70;;;;;;;21.04;75.75;101182.09;5074625;28;20024;-69
2023/09/12 06:42:31;;;;;;;20.90;15.55;;;;;;;21.07;75.65;101178.63;5086423;28;20056;-69
2023/09/12 06:44:56;;;;;;;17.92;15.35;;;;;;;21.12;75.49;101180.50;5056660;28;20144;-69
2023/09/12 06:47:21;;;;;;;20.63;14.80;;;;;;;21.16;75.26;101190.00;5066589;28;20107;-69
2023/09/12 06:49:47;;;;;;;20.20;15.70;;;;;;;21.16;75.19;101192.84;5050480;28;20059;-69
2023/09/12 06:52:13;;;;;;;17.95;15.57;;;;;;;21.19;74.58;101198.69;5053253;28;20120;-67
2023/09/12 06:54:38;;;;;;;22.15;18.80;;;;;;;21.12;74.75;101192.63;5073449;28;20033;-68
2023/09/12 06:57:04;;;;;;;20.23;17.13;;;;;;;21.18;74.77;101191.38;5067538;28;20089;-68
2023/09/12 06:59:29;;;;;;;18.30;14.55;;;;;;;21.22;75.14;101191.56;5070753;28;20518;-68
2023/09/12 07:01:54;;;;;;;17.33;14.10;;;;;;;21.23;74.58;101199.72;5064095;28;20017;-68
2023/09/12 07:04:20;;;;;;;18.63;14.75;;;;;;;21.23;74.46;101199.72;5051572;28;20029;-67
2023/09/12 07:06:45;;;;;;;20.77;16.17;;;;;;;21.22;74.23;101188.72;5050470;28;20106;-69
2023/09/12 07:09:14;;;;;;;19.60;14.73;;;;;;;21.24;74.46;101192.09;5050894;28;20039;-68
2023/09/12 07:11:39;;;;;;;21.33;16.83;;;;;;;21.24;74.51;101189.25;5049978;28;20074;-68
2023/09/12 07:14:05;;;;;;;21.15;16.85;;;;;;;21.23;74.69;101188.44;5050639;28;20045;-68
2023/09/12 07:16:31;;;;;;;20.15;17.02;;;;;;;21.25;74.74;101194.56;5059040;28;20127;-68
2023/09/12 07:18:57;;;;;;;22.63;15.98;;;;;;;21.29;74.54;101194.78;5057436;28;20099;-67
2023/09/12 07:21:22;;;;;;;18.45;14.57;;;;;;;21.32;74.28;101196.97;5050771;28;20464;-68
2023/09/12 07:23:48;;;;;;;18.83;15.13;;;;;;;21.31;74.43;101196.16;5071447;28;20072;-68
2023/09/12 07:26:14;;;;;;;20.08;16.48;;;;;;;21.33;74.31;101204.31;5090513;28;20024;-68
2023/09/12 07:28:40;;;;;;;19.65;14.18;;;;;;;21.35;74.40;101199.22;5090769;28;20028;-68
2023/09/12 07:31:05;;;;;;;20.75;17.65;;;;;;;21.34;74.46;101206.00;5086389;28;20047;-67
2023/09/12 07:33:30;;;;;;;18.88;15.32;;;;;;;21.38;74.26;101211.84;5060406;28;20536;-68
2023/09/12 07:35:56;;;;;;;18.33;14.50;;;;;;;21.41;74.06;101214.03;5061271;28;20484;-68
2023/09/12 07:38:21;;;;;;;20.17;16.65;;;;;;;21.40;74.35;101206.72;5050356;28;20447;-68
2023/09/12 07:40:47;;;;;;;21.23;15.18;;;;;;;21.45;74.02;101204.59;5053819;28;20624;-67
2023/09/12 07:43:12;;;;;;;21.27;18.98;;;;;;;21.46;74.01;101202.63;5068572;28;20689;-68
2023/09/12 07:45:37;;;;;;;19.50;16.92;;;;;;;21.54;74.08;101204.72;5076063;28;20107;-67
2023/09/12 07:48:09;;;;;;;20.45;16.60;;;;;;;21.62;74.10;101200.28;5067386;28;20052;-66
2023/09/12 07:50:35;;;;;;;;;;;;;;;21.76;73.67;101201.88;5056563;28;20036;-67
2023/09/12 07:53:00;;;;;;;19.52;17.13;;;;;;;21.82;73.33;101202.59;5064875;28;19916;-67
2023/09/12 07:55:25;;;;;;;17.98;15.07;;;;;;;21.92;73.17;101201.50;5060869;28;20186;-69
2023/09/12 07:57:51;;;;;;;20.55;16.55;;;;;;;22.02;72.53;101198.44;5071906;28;20029;-68
2023/09/12 08:00:16;;;;;;;22.27;15.30;;;;;;;22.11;72.66;101202.13;5063981;28;20437;-67
2023/09/12 08:02:42;;;;;;;22.10;17.88;;;;;;;22.19;72.21;101209.88;5054813;28;20048;-67
2023/09/12 08:05:08;;;;;;;22.85;18.20;;;;;;;22.22;72.38;101214.06;5052518;28;20036;-68
2023/09/12 08:07:34;;;;;;;20.60;16.05;;;;;;;22.34;71.63;101211.47;5075158;28;20036;-68
2023/09/12 08:10:00;;;;;;;20.33;15.02;;;;;;;22.45;71.07;101214.84;5068397;28;20029;-67
2023/09/12 08:12:27;;;;;;;20.60;14.88;;;;;;;22.51;70.64;101224.84;5069811;28;20037;-68
2023/09/12 08:14:54;;;;;;;22.13;16.35;;;;;;;22.49;70.58;101232.84;5061802;28;20033;-68
2023/09/12 08:17:20;;;;;;;17.98;14.65;;;;;;;22.52;70.97;101246.34;5070160;28;20035;-68
2023/09/12 08:19:45;;;;;;;16.85;14.13;;;;;;;22.50;70.73;101232.50;5069681;28;20041;-68
2023/09/12 08:22:12;;;;;;;20.77;18.40;;;;;;;22.31;70.49;101237.56;5078520;28;20035;-68
2023/09/12 08:24:39;;;;;;;17.73;14.15;;;;;;;22.39;70.67;101235.94;5088769;28;20024;-68
2023/09/12 08:27:05;;;;;;;16.15;13.65;;;;;;;22.38;71.15;101240.75;5090092;28;20521;-67
2023/09/12 08:29:32;;;;;;;16.20;13.15;;;;;;;22.38;70.80;101251.25;5080337;28;20028;-68
2023/09/12 08:31:59;;;;;;;17.75;14.32;;;;;;;22.36;71.15;101247.88;5066842;28;20140;-68
2023/09/12 08:34:25;;;;;;;15.05;13.45;;;;;;;22.35;70.69;101266.03;5049755;28;20075;-68
2023/09/12 08:36:51;;;;;;;18.45;15.38;;;;;;;22.29;70.90;101262.50;5049124;28;20036;-68
2023/09/12 08:39:22;;;;;;;15.40;13.60;;;;;;;22.27;71.23;101262.81;5053969;28;20027;-68
2023/09/12 08:41:47;;;;;;;16.95;12.98;;;;;;;22.30;71.26;101265.00;5070188;28;20036;-68
2023/09/12 08:44:13;;;;;;;16.85;13.80;;;;;;;22.27;71.58;101267.63;5072311;28;20094;-68
2023/09/12 08:46:44;;;;;;;13.40;11.95;;;;;;;22.29;71.54;101254.84;5073361;28;20438;-68
2023/09/12 08:49:10;;;;;;;19.35;16.60;;;;;;;22.24;71.94;101260.66;5064564;28;20031;-68
2023/09/12 08:51:37;;;;;;;19.13;16.60;;;;;;;22.15;72.09;101259.72;5072931;28;20033;-69
2023/09/12 08:54:04;;;;;;;17.35;14.95;;;;;;;22.18;72.09;101264.75;5077047;28;20032;-69
2023/09/12 08:56:30;;;;;;;18.27;12.63;;;;;;;22.26;72.13;101261.16;5092515;28;20084;-69
2023/09/12 08:58:58;;;;;;;13.55;11.40;;;;;;;22.31;71.67;101257.34;5093794;28;20024;-69
2023/09/12 09:01:27;;;;;;;14.73;11.73;;;;;;;22.40;71.98;101265.88;5093204;28;20499;-68
2023/09/12 09:03:52;;;;;;;11.18;9.00;;;;;;;22.58;71.03;101264.00;5092773;28;20032;-68
2023/09/12 09:06:21;;;;;;;10.35;9.25;;;;;;;22.63;70.31;101269.50;5076685;28;20146;-68
2023/09/12 09:08:48;;;;;;;15.63;11.52;;;;;;;22.52;70.00;101271.81;5081037;28;20074;-68
2023/09/12 09:11:13;;;;;;;12.45;10.60;;;;;;;22.56;70.00;101270.00;5092888;28;20036;-68
2023/09/12 09:13:38;;;;;;;10.98;8.95;;;;;;;22.69;69.67;101262.56;5093081;28;20383;-68
2023/09/12 09:16:19;;;;;;;11.02;9.15;;;;;;;22.88;69.79;101256.66;5093206;28;20126;-68
2023/09/12 09:19:02;;;;;;;19.07;12.63;;;;;;;22.98;69.17;101242.22;5092430;28;20042;-69
2023/09/12 09:21:32;;;;;;;14.65;10.98;;;;;;;23.09;69.25;101234.28;5093111;28;20633;-69
2023/09/12 09:24:03;;;;;;;19.42;13.68;;;;;;;23.13;68.91;101243.78;5083159;28;20025;-69
2023/09/12 09:26:48;;;;;;;16.17;11.20;;;;;;;23.18;69.03;101237.97;5051934;28;20040;-69
2023/09/12 09:29:18;;;;;;;16.98;12.98;;;;;;;23.22;68.99;101231.31;5053270;28;20029;-69
2023/09/12 09:31:46;;;;;;;21.02;15.65;;;;;;;23.31;69.19;101230.53;5051604;28;20112;-68
2023/09/12 09:34:16;;;;;;;15.63;12.43;;;;;;;23.40;68.71;101237.03;5052882;28;20139;-69
2023/09/12 09:36:51;;;;;;;21.48;16.55;;;;;;;23.45;68.64;101239.69;5052254;28;20495;-68
2023/09/12 09:39:18;;;;;;;26.70;21.25;;;;;;;23.50;68.90;101245.19;5065998;28;20024;-69
2023/09/12 09:41:50;;;;;;;29.23;22.60;;;;;;;23.57;68.68;101241.88;5063873;28;20489;-69
2023/09/12 09:44:16;;;;;;;16.85;13.32;;;;;;;23.68;67.65;101231.91;5052597;28;20036;-69
2023/09/12 09:46:45;;;;;;;23.00;17.67;;;;;;;23.75;67.90;101227.41;5051620;28;20115;-69
2023/09/12 09:49:14;;;;;;;28.83;22.58;;;;;;;23.83;67.87;101224.94;5052343;28;20028;-68
2023/09/12 09:51:43;;;;;;;21.45;17.08;;;;;;;23.91;67.55;101224.09;5084263;28;20101;-69
2023/09/12 09:54:09;;;;;;;24.98;19.48;;;;;;;23.99;67.40;101226.06;5051153;28;20037;-69
2023/09/12 09:56:55;;;;;;;24.25;18.23;;;;;;;24.08;67.11;101228.91;5091748;28;20032;-68
2023/09/12 09:59:25;;;;;;;31.70;23.85;;;;;;;24.12;67.63;101227.06;5055884;28;20492;-68
2023/09/12 10:01:55;;;;;;;30.88;22.60;;;;;;;24.11;65.97;101231.91;5066562;28;20603;-69
2023/09/12 10:04:22;;;;;;;36.03;26.88;;;;;;;24.08;66.41;101229.72;5072233;28;20085;-68
2023/09/12 10:06:49;;;;;;;25.77;19.95;;;;;;;24.15;66.08;101232.06;5071509;28;20123;-69
2023/09/12 10:09:16;;;;;;;29.85;21.90;;;;;;;24.23;66.36;101234.88;5072224;28;20025;-69
2023/09/12 10:11:43;;;;;;;28.92;22.15;;;;;;;24.32;66.01;101234.03;5067064;28;20098;-69
2023/09/12 10:14:11;;;;;;;33.90;24.20;;;;;;;24.44;65.84;101220.84;5070985;28;20021;-69
2023/09/12 10:16:45;;;;;;;37.53;26.67;;;;;;;24.49;66.70;101226.34;5084462;28;20487;-69
2023/09/12 10:19:29;;;;;;;33.10;24.20;;;;;;;24.56;66.23;101222.13;5091998;28;20048;-68
2023/09/12 10:22:06;;;;;;;35.22;26.17;;;;;;;24.53;65.59;101223.66;5071741;28;20043;-66
2023/09/12 10:24:34;;;;;;;39.00;25.10;;;;;;;24.54;66.64;101219.66;5064682;28;20021;-65
2023/09/12 10:27:01;;;;;;;34.25;23.83;;;;;;;24.46;65.51;101223.34;5080412;28;20119;-66
2023/09/12 10:29:27;;;;;;;30.70;24.02;;;;;;;24.43;65.27;101213.50;5089874;28;20020;-65
2023/09/12 10:31:53;;;;;;;39.58;28.23;;;;;;;24.47;65.50;101216.50;5092140;28;20039;-66
2023/09/12 10:34:20;;;;;;;36.78;27.95;;;;;;;24.48;65.27;101215.31;5091942;28;20016;-65
2023/09/12 10:36:46;;;;;;;34.25;24.33;;;;;;;24.53;65.03;101203.81;5079128;28;20040;-67
2023/09/12 10:39:13;;;;;;;31.58;24.65;;;;;;;24.48;65.27;101203.97;5057394;28;20029;-68
2023/09/12 10:41:40;;;;;;;30.67;24.38;;;;;;;24.53;65.40;101211.50;5057301;28;20047;-69
2023/09/12 10:44:11;;;;;;;32.22;25.73;;;;;;;24.58;65.10;101211.28;5065054;28;20058;-69
2023/09/12 10:46:40;;;;;;;35.40;25.95;;;;;;;24.59;64.44;101213.78;5071074;28;20082;-69
2023/09/12 10:49:13;;;;;;;30.50;22.65;;;;;;;24.63;64.12;101209.09;5070859;28;20158;-68
2023/09/12 10:51:44;;;;;;;34.20;25.95;;;;;;;24.66;63.93;101216.94;5090978;28;20376;-67
2023/09/12 10:54:13;;;;;;;38.78;30.70;;;;;;;24.63;63.90;101217.59;5064441;28;20065;-68
2023/09/12 10:56:39;;;;;;;40.58;30.15;;;;;;;24.73;64.40;101214.41;5060269;28;20040;-69
2023/09/12 10:59:04;;;;;;;34.63;26.60;;;;;;;24.73;64.22;101222.91;5051312;28;20024;-69
2023/09/12 11:01:45;;;;;;;40.08;30.85;;;;;;;24.61;63.91;101224.81;5063146;28;20044;-69
2023/09/12 11:04:19;;;;;;;37.80;29.83;;;;;;;24.58;64.96;101223.47;5070189;28;20497;-69
2023/09/12 11:06:48;;;;;;;42.92;32.05;;;;;;;24.52;64.64;101216.31;5070561;28;20028;-69